Terminal Aerodrome Forecast
Issued by NWS

Home | Current Version | Previous Version | Text Only | Print | Product List | Glossary On
Versions: 1 2 3 4 5 6 7 8 9 10 11 12 13 14 15 16 17 18
588
FTUS46 KMTR 271120
TAFMRY
TAF
KMRY 271120Z 2712/2812 VRB03KT 3SM BR OVC002
     FM271600 29003KT P6SM OVC005
     FM271830 29006KT P6SM FEW008
     FM272100 29009KT P6SM SKC
     FM280300 24007KT P6SM OVC007
     FM280700 24003KT 4SM BR OVC003=

USA.gov is the U.S. government's official web portal to all federal, state and local government web resources and services.